createdAt,value
2023-04-06T00:00:34.125Z,21.4
2023-04-06T00:15:32.086Z,21.4
2023-04-06T00:30:32.887Z,21.3
2023-04-06T00:45:33.003Z,21.3
2023-04-06T01:00:32.999Z,21.3
2023-04-06T01:15:32.068Z,21.2
2023-04-06T01:30:33.103Z,21.2
2023-04-06T01:45:32.515Z,21.2
2023-04-06T02:00:32.018Z,21.1
2023-04-06T02:15:32.930Z,21.1
2023-04-06T02:30:32.140Z,21.1
2023-04-06T02:45:31.979Z,21.1
2023-04-06T03:00:32.436Z,21.0
2023-04-06T03:15:32.249Z,21
2023-04-06T03:30:32.520Z,20.9
2023-04-06T03:45:32.493Z,20.9
2023-04-06T04:00:32.000Z,20.9
2023-04-06T04:15:32.600Z,20.9
2023-04-06T04:30:32.739Z,20.9
2023-04-06T04:45:32.639Z,20.9
2023-04-06T05:00:33.643Z,21.0
2023-04-06T05:15:32.583Z,21
2023-04-06T05:30:32.902Z,21
2023-04-06T05:45:32.546Z,21.1
2023-04-06T06:00:35.725Z,21.2
2023-04-06T06:15:32.849Z,21.2
2023-04-06T06:30:33.793Z,21.3
2023-04-06T06:45:32.251Z,21.3
2023-04-06T07:00:39.612Z,21.4
2023-04-06T07:15:33.088Z,21.4
2023-04-06T07:30:37.036Z,21.5
2023-04-06T07:45:32.308Z,21.5
2023-04-06T08:00:36.451Z,21.6
2023-04-06T08:15:33.044Z,21.6
2023-04-06T08:30:35.130Z,21.7
2023-04-06T08:45:32.281Z,21.8
2023-04-06T09:00:35.133Z,21.8
2023-04-06T09:15:33.268Z,21.8
2023-04-06T09:30:34.105Z,21.8
2023-04-06T09:45:32.197Z,21.8
2023-04-06T10:00:36.238Z,21.8
2023-04-06T10:15:32.461Z,21.8
2023-04-06T10:30:33.083Z,21.8
2023-04-06T10:45:32.425Z,21.8
2023-04-06T11:00:43.264Z,21.8
2023-04-06T11:15:32.832Z,21.8
2023-04-06T11:30:35.652Z,21.8
2023-04-06T11:45:33.001Z,21.8
2023-04-06T12:00:36.373Z,21.8
2023-04-06T12:15:32.459Z,21.9
2023-04-06T12:30:38.195Z,21.9
2023-04-06T12:45:32.290Z,21.9
2023-04-06T13:00:34.698Z,21.9
2023-04-06T13:15:33.291Z,22.0
2023-04-06T13:30:32.999Z,22
2023-04-06T13:45:32.151Z,22
2023-04-06T14:00:32.800Z,22
2023-04-06T14:15:32.273Z,22
2023-04-06T14:30:32.415Z,22
2023-04-06T14:45:32.889Z,22
2023-04-06T15:00:32.931Z,22
2023-04-06T15:15:32.214Z,22
2023-04-06T15:30:33.156Z,22.1
2023-04-06T15:45:32.519Z,22.1
2023-04-06T16:00:33.028Z,22.1
2023-04-06T16:15:32.931Z,22.2
2023-04-06T16:30:32.675Z,22.2
2023-04-06T16:45:32.938Z,22.2
2023-04-06T17:00:33.190Z,22.2
2023-04-06T17:15:33.232Z,22.2
2023-04-06T17:30:32.552Z,22.2
2023-04-06T17:45:32.316Z,22.1
2023-04-06T18:00:33.275Z,22.1
2023-04-06T18:15:33.052Z,22.0
2023-04-06T18:30:32.587Z,22
2023-04-06T18:45:32.860Z,21.9
2023-04-06T19:00:32.653Z,21.9
2023-04-06T19:15:32.674Z,21.8
2023-04-06T19:30:32.106Z,21.8
2023-04-06T19:45:32.224Z,21.7
2023-04-06T20:00:32.544Z,21.7
2023-04-06T20:15:32.736Z,21.6
2023-04-06T20:30:32.594Z,21.6
2023-04-06T20:45:32.251Z,21.5
2023-04-06T21:00:33.514Z,21.5
2023-04-06T21:15:32.577Z,21.5
2023-04-06T21:30:32.370Z,21.4
2023-04-06T21:45:32.664Z,21.4
2023-04-06T22:00:32.878Z,21.3
2023-04-06T22:15:32.192Z,21.3
2023-04-06T22:30:32.865Z,21.3
2023-04-06T22:45:32.967Z,21.3
2023-04-06T23:00:32.335Z,21.2
2023-04-06T23:15:32.643Z,21.2
2023-04-06T23:30:32.637Z,21.2
2023-04-06T23:45:32.547Z,21.2
